Pagrindinis puslapis
METAR-TAF:

METAR-TAF

Oro uostai :

Abilene, Teksasas, Jungtinės Amerikos Valstijos

platuma: 32-25-12N, ilguma: 099-51-25W, Aukštis: 545 m

Dabartinis oras

Ataskaita buvo paskelbta 17 minutes, ne 04:56 UTC
Vėjas 5 kt iš Pietų
Temperatūra 27°C
Drėgmė 48%
Slėgis 1014 hPa
Matomumas: 16.1 km
Giedras dangus

METAR: KDYS 160456Z AUTO 18005KT 10SM CLR 27/15 A2995 RMK AO2 SLP091 T02690146

Laikas: 00:13 (05:13 UTC)

Prognozė

Ataskaita buvo paskelbta 1 valandą ir 13 minutes, ne 04:00 UTC
Prognozė galioja nuo 16 metu 04 UTC su 17 metu 10 UTC
Vėjas 6 kt iš Pietų
Matomumas 10 km arba daugiau
Mažai debesys ne aukštis 5500 ft
Mažai debesys ne aukštis 32000 ft

TAF: KDYS 160400Z 1604/1710 19006KT 9999 FEW055 FEW320 QNH2987INS TX37/1622Z TN21/1612Z

Orai ataskaitas ir orų prognozės (METAR, TAF).

turimą stotys yra geltonos ir raudonos taškus žemėlapyje.

Perkelti pele per norėdami pamatyti stoties vardą.

Tada spustelėkite, norėdami matyti oro stebėjimo ir prognozės.

Norėdami pakeisti žemėlapį: spustelėkite ant žalios mygtukų su juodo kryžiaus žemyn,; žalią mygtuką su brūkšneliu, jei norite nutolinti; arba žalių rodyklių gretimoms žemėlapius.


METAR-TAF: